Lancaster, PA

7:55 AM EST on December 09, 2016 (GMT -0500)
Paradise | | Change Station

Elev 365 ft 40.01 °N, 76.14 °W | Updated 8 minutes ago

Partly Cloudy
Partly Cloudy
28.3 °F
Feels Like 22 °F
N
6.0
Wind Variable Wind from West
Gusts 14.0 mph

Today
High -- | Low -- °F
--% Chance of Precip.
Yesterday
High -- | Low -- °F
Precip. -- in
Pressure 30.20 in
Visibility 10.0 miles
Clouds Few 7000 ft
Windchill 22 °F
Dew Point 19 °F
Humidity 68%
Rainfall 0.00 in
Snow Depth Not available.
7:15 AM 4:39 PM
Waxing Gibbous, 73% visible
METAR KLNS 091153Z 28014KT 10SM FEW070 M02/M08 A3019 RMK AO2 SLP226 T10221078 11017 21028 53008
Pressure 30.20 in
Visibility 10.0 miles
Clouds Few 7000 ft
Windchill 22 °F
Dew Point 19 °F
Humidity 68%
Rainfall 0.00 in
Snow Depth Not available.
7:15 AM 4:39 PM
Waxing Gibbous, 73% visible
METAR KLNS 091153Z 28014KT 10SM FEW070 M02/M08 A3019 RMK AO2 SLP226 T10221078 11017 21028 53008

10-Day Weather Forecast

Almanac

Astronomy

Dec. 09, 2016 Rise Set
Actual Time
Civil Twilight
Nautical Twilight
Astronomical Twilight
Moon
Length of Visible Light
Length of Day
Tomorrow will be .
, % of the Moon is Illuminated

Today's Extremes

State Highs State Lows

Community

WunderPhotos

Upload Photos

1,956,407 photos uploaded!

WunderBlog® & News

Nearby

Air Quality

  Air Quality AQ Index Pollutant
Not available.

Snow Depth

Station Depth Elevation

Earthquake Activity

City Distance Mag. Time & Date
Minimum magnitude displayed is 2.5.

Coastal Water Temperatures

Place Temperature

Stations

Nearby Weather Stations

Station Location Temp. Windchill Dew Point Humidity Wind Precip. Elev Updated Type
                   

Watches & Warnings

There are currently no watches in effect.